Sitc Xiamen — 3ELU — position and weather

sailwx.info

Track history (hours):
 
Tides and Currents Weather Stations Pressure Air Temp Water Temp Dewpoint Dewpoint Depression Visibility Wind Speed Wind Dir Waves Ship Positions

Sitc Xiamen

Last reported at 2015-Aug-31 20:24 UTC. Time now 2015-Sep-01 06:01 UTC.
Position N 23°44' E 117°53'.

Length 145 m; draft 7.4 m.

Type: Ship (hazmat cat A). MMSI: 355090000.

Date/timePositionNaut miles runAvg speedWind from/ knotsBaromVisibWave heightAir tempDewpointWater temp
2015-Aug-31 20:24N 23°44' E 117°53'1416.2
2015-Aug-31 19:33N 23°53' E 118°04'1616.4
2015-Aug-31 18:33N 24°07' E 118°13'1212.0
2015-Aug-31 17:33N 24°19' E 118°12'1211.5
2015-Aug-31 16:30N 24°29' E 118°03'3 2.9
2015-Aug-31 15:28N 24°31' E 118°05'0 0.0
2015-Aug-31 13:22N 24°31' E 118°05'0 0.0
2015-Aug-31 11:33N 24°31' E 118°05'8 7.7
2015-Aug-31 10:33N 24°24' E 118°07'1212.0
2015-Aug-31 09:34N 24°20' E 118°19'1515.0
2015-Aug-31 08:33N 24°21' E 118°36'21315.1
2015-Aug-30 18:27N 27°01' E 121°13'16514.7
2015-Aug-30 07:14N 29°34' E 122°20'1216.2
2015-Aug-30 06:29N 29°46' E 122°17'1212.8
2015-Aug-30 05:31N 29°55' E 122°07'1313.1
2015-Aug-30 04:31N 29°56' E 121°52'0 0.0
2015-Aug-29 21:18N 29°56' E 121°52'3 3.0
2015-Aug-29 20:27N 29°57' E 121°55'8 8.8
2015-Aug-29 19:33N 29°56' E 122°04'1110.1
2015-Aug-29 18:30N 29°49' E 122°14'9 8.5
2015-Aug-29 17:30N 29°44' E 122°22'11 9.9
2015-Aug-29 16:25N 29°49' E 122°33'11 2.9
2015-Aug-29 12:32N 29°54' E 122°45'43014.8
2015-Aug-28 07:33N 33°41' E 129°54'2217.0
2015-Aug-28 06:15N 33°53' E 130°16'25011.8
2015-Aug-27 09:04N 34°37' E 135°14'4 0.9
2015-Aug-27 04:06N 34°41' E 135°16'2 4.3
2015-Aug-27 03:33N 34°38' E 135°17'8 6.4
2015-Aug-27 02:19N 34°38' E 135°26'0 0.0
2015-Aug-27 01:25N 34°38' E 135°26'0 0.0
2015-Aug-26 23:31N 34°38' E 135°26'1 1.1
2015-Aug-26 22:33N 34°39' E 135°25'9 8.6
2015-Aug-26 21:33N 34°34' E 135°17'1313.0
2015-Aug-26 20:33N 34°37' E 135°01'58811.7
2015-Aug-24 18:29N 36°41' E 123°14'1313.5
2015-Aug-24 17:32N 36°44' E 122°59'1413.5
2015-Aug-24 16:32N 36°48' E 122°42'1212.2
2015-Aug-24 15:34N 36°52' E 122°29'2 1.6
2015-Aug-24 14:28N 36°53' E 122°27'0 0.0
2015-Aug-24 13:22N 36°53' E 122°27'0 0.0
2015-Aug-24 12:22N 36°53' E 122°27'0 0.0
2015-Aug-24 11:22N 36°53' E 122°27'0 0.0
2015-Aug-24 10:28N 36°53' E 122°27'0 0.0
2015-Aug-24 09:31N 36°53' E 122°27'0 0.4
2015-Aug-24 08:33N 36°53' E 122°27'6 6.4
2015-Aug-24 07:33N 36°53' E 122°35'1514.7
2015-Aug-24 06:33N 37°05' E 122°45'3213.7
2015-Aug-24 04:14N 37°36' E 122°39'5914.7
2015-Aug-24 00:14N 38°30' E 122°07'1015.2
2015-Aug-23 23:33N 38°39' E 122°03'13 0.7
2015-Aug-23 04:34N 38°50' E 121°52'0 0.2
2015-Aug-23 03:33N 38°49' E 121°52'0 0.3
2015-Aug-23 02:29N 38°49' E 121°52'2 2.2
2015-Aug-23 01:33N 38°47' E 121°51'1414.1
2015-Aug-23 00:33N 38°35' E 121°42'1514.1
2015-Aug-22 23:31N 38°31' E 121°24'15814.2
2015-Aug-22 12:22N 38°55' E 118°03'1112.3
2015-Aug-22 11:30N 38°58' E 117°50'2 1.2
2015-Aug-22 09:31N 38°58' E 117°47'0 0.0
2015-Aug-22 08:31N 38°58' E 117°47'0 0.0
2015-Aug-22 07:31N 38°58' E 117°47'0 0.1
2015-Aug-22 06:31N 38°58' E 117°47'0 0.1
2015-Aug-22 05:31N 38°58' E 117°47'0 0.0
2015-Aug-22 04:31N 38°58' E 117°47'0 0.0
2015-Aug-22 03:25N 38°58' E 117°47'0 0.0
2015-Aug-22 02:31N 38°58' E 117°47'0 0.0
2015-Aug-22 01:31N 38°58' E 117°47'0 0.0
2015-Aug-22 00:31N 38°58' E 117°47'0 0.0
2015-Aug-21 23:25N 38°58' E 117°47'0 0.0
2015-Aug-21 22:31N 38°58' E 117°47'0 0.1
2015-Aug-21 21:33N 38°58' E 117°47'1211.4
2015-Aug-21 20:33N 38°57' E 118°02'  
Track history (hours):
 
Tides and Currents Weather Stations Pressure Air Temp Water Temp Dewpoint Dewpoint Depression Visibility Wind Speed Wind Dir Waves Ship Positions

Sitc Xiamen

Last reported at 2015-Aug-31 20:24 UTC. Time now 2015-Sep-01 06:01 UTC.
Position N 23°44' E 117°53'.

Length 145 m; draft 7.4 m.

Type: Ship (hazmat cat A). MMSI: 355090000.

Date/timePositionNaut miles runAvg speedWind from/ knotsBaromVisibWave heightAir tempDewpointWater temp
2015-Aug-31 20:24N 23°44' E 117°53'1416.2
2015-Aug-31 19:33N 23°53' E 118°04'1616.4
2015-Aug-31 18:33N 24°07' E 118°13'1212.0
2015-Aug-31 17:33N 24°19' E 118°12'1211.5
2015-Aug-31 16:30N 24°29' E 118°03'3 2.9
2015-Aug-31 15:28N 24°31' E 118°05'0 0.0
2015-Aug-31 13:22N 24°31' E 118°05'0 0.0
2015-Aug-31 11:33N 24°31' E 118°05'8 7.7
2015-Aug-31 10:33N 24°24' E 118°07'1212.0
2015-Aug-31 09:34N 24°20' E 118°19'1515.0
2015-Aug-31 08:33N 24°21' E 118°36'21315.1
2015-Aug-30 18:27N 27°01' E 121°13'16514.7
2015-Aug-30 07:14N 29°34' E 122°20'1216.2
2015-Aug-30 06:29N 29°46' E 122°17'1212.8
2015-Aug-30 05:31N 29°55' E 122°07'1313.1
2015-Aug-30 04:31N 29°56' E 121°52'0 0.0
2015-Aug-29 21:18N 29°56' E 121°52'3 3.0
2015-Aug-29 20:27N 29°57' E 121°55'8 8.8
2015-Aug-29 19:33N 29°56' E 122°04'1110.1
2015-Aug-29 18:30N 29°49' E 122°14'9 8.5
2015-Aug-29 17:30N 29°44' E 122°22'11 9.9
2015-Aug-29 16:25N 29°49' E 122°33'11 2.9
2015-Aug-29 12:32N 29°54' E 122°45'43014.8
2015-Aug-28 07:33N 33°41' E 129°54'2217.0
2015-Aug-28 06:15N 33°53' E 130°16'25011.8
2015-Aug-27 09:04N 34°37' E 135°14'4 0.9
2015-Aug-27 04:06N 34°41' E 135°16'2 4.3
2015-Aug-27 03:33N 34°38' E 135°17'8 6.4
2015-Aug-27 02:19N 34°38' E 135°26'0 0.0
2015-Aug-27 01:25N 34°38' E 135°26'0 0.0
2015-Aug-26 23:31N 34°38' E 135°26'1 1.1
2015-Aug-26 22:33N 34°39' E 135°25'9 8.6
2015-Aug-26 21:33N 34°34' E 135°17'1313.0
2015-Aug-26 20:33N 34°37' E 135°01'58811.7
2015-Aug-24 18:29N 36°41' E 123°14'1313.5
2015-Aug-24 17:32N 36°44' E 122°59'1413.5
2015-Aug-24 16:32N 36°48' E 122°42'1212.2
2015-Aug-24 15:34N 36°52' E 122°29'2 1.6
2015-Aug-24 14:28N 36°53' E 122°27'0 0.0
2015-Aug-24 13:22N 36°53' E 122°27'0 0.0
2015-Aug-24 12:22N 36°53' E 122°27'0 0.0
2015-Aug-24 11:22N 36°53' E 122°27'0 0.0
2015-Aug-24 10:28N 36°53' E 122°27'0 0.0
2015-Aug-24 09:31N 36°53' E 122°27'0 0.4
2015-Aug-24 08:33N 36°53' E 122°27'6 6.4
2015-Aug-24 07:33N 36°53' E 122°35'1514.7
2015-Aug-24 06:33N 37°05' E 122°45'3213.7
2015-Aug-24 04:14N 37°36' E 122°39'5914.7
2015-Aug-24 00:14N 38°30' E 122°07'1015.2
2015-Aug-23 23:33N 38°39' E 122°03'13 0.7
2015-Aug-23 04:34N 38°50' E 121°52'0 0.2
2015-Aug-23 03:33N 38°49' E 121°52'0 0.3
2015-Aug-23 02:29N 38°49' E 121°52'2 2.2
2015-Aug-23 01:33N 38°47' E 121°51'1414.1
2015-Aug-23 00:33N 38°35' E 121°42'1514.1
2015-Aug-22 23:31N 38°31' E 121°24'15814.2
2015-Aug-22 12:22N 38°55' E 118°03'1112.3
2015-Aug-22 11:30N 38°58' E 117°50'2 1.2
2015-Aug-22 09:31N 38°58' E 117°47'0 0.0
2015-Aug-22 08:31N 38°58' E 117°47'0 0.0
2015-Aug-22 07:31N 38°58' E 117°47'0 0.1
2015-Aug-22 06:31N 38°58' E 117°47'0 0.1
2015-Aug-22 05:31N 38°58' E 117°47'0 0.0
2015-Aug-22 04:31N 38°58' E 117°47'0 0.0
2015-Aug-22 03:25N 38°58' E 117°47'0 0.0
2015-Aug-22 02:31N 38°58' E 117°47'0 0.0
2015-Aug-22 01:31N 38°58' E 117°47'0 0.0
2015-Aug-22 00:31N 38°58' E 117°47'0 0.0
2015-Aug-21 23:25N 38°58' E 117°47'0 0.0
2015-Aug-21 22:31N 38°58' E 117°47'0 0.1
2015-Aug-21 21:33N 38°58' E 117°47'1211.4
2015-Aug-21 20:33N 38°57' E 118°02'  

Dump ship's entire track history